GED Airport (Delaware Coastal) Information

FAA: GED - ICAO: KGED

GED Airport Location

State Delaware
County Sussex
City Georgetown
GED Airport is 2 miles southeast of Georgetown, DE.
Latitude 38-41-15.5000N
Longitude 075-21-33.5000W
Elevation 53ft

KGED Airport METARs

METAR KGED 200454Z AUTO VRB03KT 10SM CLR 14/09 A3009 RMK AO2 SLP187 T01440094 402060050
Altimeter 30.09"
Temperature 14.4°C (57.9°F)
Wind 0° at 3KT
Clouds Skies are clear.
Visibility 10.0mi
Time observed: 2021-10-20T04:54:00Z

GED Airport Details

Status Operational
Activation N/A
Ownership Public
Usage Public
Chart WASHINGTON
ATC on-site No
Beacon schedule sunset-sunrise
Beacon color clear green

GED Airport Contacts

Owner SUSSEX COUNTY COUNCIL
Owner address PO BOX 589, GEORGETOWN, DE 19947
Owner phone 302-855-7770
Manager DAVID & CATHERINE DOYLE
Manager address 1029 PEACH BASKET RD, FELTON, DE 19943
Manager phone 302-284-2101

GED Airport (Delaware Coastal) Radio Frequencies

GED (Airport) Radio Frequencies

UNICOM 123
Common traffic advisory frequency (CTAF) 123